Time;durP1;ratioP1;P1;durP2;ratioP2;P2;SDS_P1;SDS_P2;PMS_P1;PMS_P2;Temp;Humidity;BMP_temperature;BMP_pressure;BME280_temperature;BME280_humidity;BME280_pressure;Samples;Min_cycle;Max_cycle;Signal;HPM_P1;HPM_P2
2021/11/01 00:00:20;;;;;;;10.03;2.40;;;13.60;99.90;;;;;;5079504;28;21069;-83
2021/11/01 00:02:49;;;;;;;5.40;2.23;;;13.60;99.90;;;;;;5074215;28;20961;-83
2021/11/01 00:05:18;;;;;;;13.03;2.80;;;13.60;99.90;;;;;;5085475;28;20450;-82
2021/11/01 00:07:45;;;;;;;5.77;2.20;;;13.60;99.90;;;;;;5085153;28;20811;-83
2021/11/01 00:10:12;;;;;;;6.63;2.60;;;13.50;99.90;;;;;;5076257;28;20552;-84
2021/11/01 00:12:39;;;;;;;9.30;2.53;;;13.50;99.90;;;;;;5073396;28;20546;-82
2021/11/01 00:15:08;;;;;;;5.93;2.20;;;13.50;99.90;;;;;;5074875;28;20869;-82
2021/11/01 00:17:35;;;;;;;5.43;2.70;;;13.50;99.90;;;;;;5081037;28;20676;-81
2021/11/01 00:20:04;;;;;;;5.27;2.20;;;13.50;99.90;;;;;;5082722;28;20462;-83
2021/11/01 00:22:32;;;;;;;7.00;3.13;;;13.50;99.90;;;;;;5076469;28;20449;-82
2021/11/01 00:25:00;;;;;;;6.03;2.57;;;13.50;99.90;;;;;;5072190;28;20465;-83
2021/11/01 00:27:27;;;;;;;3.17;2.07;;;13.50;99.90;;;;;;5071841;28;20467;-83
2021/11/01 00:29:54;;;;;;;5.83;2.40;;;13.60;99.90;;;;;;5076387;28;20439;-81
2021/11/01 00:32:21;;;;;;;6.50;2.13;;;13.50;99.90;;;;;;5084244;28;20559;-82
2021/11/01 00:34:48;;;;;;;5.83;2.70;;;13.50;99.90;;;;;;5074347;28;21021;-82
2021/11/01 00:37:15;;;;;;;9.73;2.50;;;13.50;99.90;;;;;;5072141;28;20467;-82
2021/11/01 00:39:43;;;;;;;5.80;2.70;;;13.50;99.90;;;;;;5071266;28;20485;-81
2021/11/01 00:42:11;;;;;;;6.23;1.87;;;13.50;99.90;;;;;;5080587;28;20454;-82
2021/11/01 00:44:38;;;;;;;7.20;3.30;;;13.50;99.90;;;;;;5078478;28;20544;-82
2021/11/01 00:47:05;;;;;;;7.37;2.27;;;13.40;99.90;;;;;;5075515;28;20454;-81
2021/11/01 00:49:32;;;;;;;6.47;2.30;;;13.50;99.90;;;;;;5080929;28;20465;-81
2021/11/01 00:52:00;;;;;;;5.00;1.97;;;13.40;99.90;;;;;;5075327;28;20624;-83
2021/11/01 00:54:27;;;;;;;5.17;2.00;;;13.40;99.90;;;;;;5085065;28;20491;-82
2021/11/01 00:56:56;;;;;;;6.97;2.67;;;13.40;99.90;;;;;;5083997;28;20504;-83
2021/11/01 00:59:23;;;;;;;7.83;2.23;;;13.40;99.90;;;;;;5081483;28;20539;-83
2021/11/01 01:01:51;;;;;;;6.37;2.37;;;13.40;99.90;;;;;;5083196;28;20499;-83
2021/11/01 01:04:18;;;;;;;7.37;2.40;;;13.30;99.90;;;;;;5080501;28;20552;-84
2021/11/01 01:06:46;;;;;;;5.23;2.47;;;13.30;99.90;;;;;;5074455;28;20463;-82
2021/11/01 01:09:13;;;;;;;7.50;2.37;;;13.30;99.90;;;;;;5076483;28;20556;-82
2021/11/01 01:11:40;;;;;;;6.73;2.60;;;13.30;99.90;;;;;;5079065;28;20466;-82
2021/11/01 01:14:08;;;;;;;10.60;2.87;;;13.30;99.90;;;;;;5080435;28;20545;-82
2021/11/01 01:16:42;;;;;;;6.47;2.50;;;13.20;99.90;;;;;;5075604;28;20457;-83
2021/11/01 01:19:15;;;;;;;4.27;2.30;;;13.20;99.90;;;;;;5072015;28;20566;-82
2021/11/01 01:24:27;;;;;;;6.80;2.53;;;13.20;99.90;;;;;;5072365;28;20474;-82
2021/11/01 01:26:54;;;;;;;6.47;2.33;;;13.20;99.90;;;;;;5083665;28;20471;-82
2021/11/01 01:29:23;;;;;;;7.80;2.50;;;13.20;99.90;;;;;;5072338;28;20464;-84
2021/11/01 01:31:50;;;;;;;4.70;1.83;;;13.10;99.90;;;;;;5079297;28;20476;-82
2021/11/01 01:34:17;;;;;;;5.70;1.93;;;13.10;99.90;;;;;;5083668;28;20465;-82
2021/11/01 01:36:45;;;;;;;4.80;2.50;;;13.10;99.90;;;;;;5079185;28;20474;-81
2021/11/01 01:39:12;;;;;;;10.43;3.50;;;13.10;99.90;;;;;;5081718;28;20474;-83
2021/11/01 01:41:44;;;;;;;3.50;2.23;;;13.10;99.90;;;;;;5081076;28;20462;-81
2021/11/01 01:44:11;;;;;;;5.07;2.10;;;13.10;99.90;;;;;;5079062;28;20556;-82
2021/11/01 01:46:39;;;;;;;4.13;1.60;;;13.10;99.90;;;;;;5073187;28;20463;-83
2021/11/01 01:49:06;;;;;;;9.53;1.87;;;13.10;99.90;;;;;;5084391;28;20481;-81
2021/11/01 01:51:33;;;;;;;2.43;1.90;;;13.00;99.90;;;;;;5084448;28;20465;-84
2021/11/01 01:54:05;;;;;;;3.47;2.20;;;13.00;99.90;;;;;;5080885;28;20455;-82
2021/11/01 01:56:32;;;;;;;4.00;2.23;;;13.00;99.90;;;;;;5092675;28;20459;-84
2021/11/01 01:59:05;;;;;;;6.33;3.03;;;13.00;99.90;;;;;;5071006;28;20800;-83
2021/11/01 02:01:33;;;;;;;6.87;1.90;;;13.00;99.90;;;;;;5074215;28;20476;-81
2021/11/01 02:04:02;;;;;;;13.17;2.33;;;13.00;99.90;;;;;;5080019;28;20813;-83
2021/11/01 02:06:55;;;;;;;4.70;2.17;;;13.00;99.90;;;;;;5071597;28;20971;-81
2021/11/01 02:09:25;;;;;;;4.13;1.70;;;13.00;99.90;;;;;;5077022;28;20459;-82
2021/11/01 02:11:57;;;;;;;6.00;2.70;;;13.00;99.90;;;;;;5080370;28;20454;-82
2021/11/01 02:14:27;;;;;;;4.23;1.80;;;13.00;99.90;;;;;;5078656;28;20541;-83
2021/11/01 02:16:54;;;;;;;4.00;2.10;;;13.00;99.90;;;;;;5080856;28;20458;-82
2021/11/01 02:19:29;;;;;;;6.93;2.43;;;12.90;99.90;;;;;;5079765;28;20509;-83
2021/11/01 02:22:02;;;;;;;6.33;2.30;;;13.00;99.90;;;;;;5079704;28;20500;-82
2021/11/01 02:24:40;;;;;;;3.40;2.13;;;13.00;99.90;;;;;;5081497;28;20455;-82
2021/11/01 02:27:11;;;;;;;8.17;2.10;;;12.90;99.90;;;;;;5076817;28;20463;-83
2021/11/01 02:29:40;;;;;;;2.53;1.90;;;12.90;99.90;;;;;;5074881;28;20482;-81
2021/11/01 02:32:08;;;;;;;3.67;2.30;;;12.90;99.90;;;;;;5077602;28;20482;-82
2021/11/01 02:34:37;;;;;;;10.93;2.47;;;12.90;99.90;;;;;;5079293;28;20457;-82
2021/11/01 02:37:04;;;;;;;10.03;2.53;;;12.90;99.90;;;;;;5076152;28;20950;-83
2021/11/01 02:39:32;;;;;;;3.70;1.90;;;12.90;99.90;;;;;;5079251;28;20569;-81
2021/11/01 02:42:01;;;;;;;5.03;2.80;;;12.90;99.90;;;;;;5078396;28;21306;-82
2021/11/01 02:44:29;;;;;;;7.53;2.73;;;12.90;99.90;;;;;;5080727;28;21364;-81
2021/11/01 02:46:56;;;;;;;3.10;1.90;;;12.90;99.90;;;;;;5083184;28;20449;-82
2021/11/01 02:49:23;;;;;;;11.17;2.70;;;12.90;99.90;;;;;;5081328;28;20551;-82
2021/11/01 02:51:50;;;;;;;4.47;2.23;;;12.90;99.90;;;;;;5079844;28;20481;-82
2021/11/01 02:54:17;;;;;;;3.50;2.60;;;12.90;99.90;;;;;;5080768;28;20885;-82
2021/11/01 02:56:44;;;;;;;6.20;2.40;;;12.90;99.90;;;;;;5077305;28;20462;-81
2021/11/01 02:59:11;;;;;;;11.27;2.40;;;12.90;99.90;;;;;;5077924;28;20478;-84
2021/11/01 03:01:39;;;;;;;4.60;2.10;;;12.90;99.90;;;;;;5087385;28;20470;-81
2021/11/01 03:04:06;;;;;;;5.70;2.50;;;12.90;99.90;;;;;;5075417;28;20495;-84
2021/11/01 03:06:33;;;;;;;6.63;2.73;;;12.90;99.90;;;;;;5078755;28;20463;-82
2021/11/01 03:09:01;;;;;;;3.47;2.17;;;12.90;99.90;;;;;;5077185;28;20566;-81
2021/11/01 03:11:29;;;;;;;5.87;2.57;;;12.90;99.90;;;;;;5082488;28;20484;-81
2021/11/01 03:13:58;;;;;;;5.90;2.43;;;12.90;99.90;;;;;;5081535;28;20454;-81
2021/11/01 03:16:27;;;;;;;7.27;1.90;;;12.90;99.90;;;;;;5078791;28;20509;-83
2021/11/01 03:19:11;;;;;;;3.30;2.43;;;12.90;99.90;;;;;;5073961;28;20487;-81
2021/11/01 03:21:43;;;;;;;8.90;2.20;;;12.90;99.90;;;;;;5055973;28;20541;-81
2021/11/01 03:24:13;;;;;;;4.13;1.60;;;12.90;99.90;;;;;;5079914;28;20462;-81
2021/11/01 03:26:42;;;;;;;6.10;2.10;;;12.90;99.90;;;;;;5073944;28;20462;-82
2021/11/01 03:29:10;;;;;;;5.73;2.70;;;12.90;99.90;;;;;;5083574;28;20457;-82
2021/11/01 03:31:39;;;;;;;6.30;2.70;;;12.90;99.90;;;;;;5077283;28;20574;-81
2021/11/01 03:34:10;;;;;;;3.10;2.10;;;12.90;99.90;;;;;;5077027;28;21014;-81
2021/11/01 03:36:39;;;;;;;8.13;2.03;;;12.80;99.90;;;;;;5079201;28;20463;-83
2021/11/01 03:39:09;;;;;;;5.93;1.90;;;12.80;99.90;;;;;;5080321;28;20482;-82
2021/11/01 03:41:36;;;;;;;6.20;2.20;;;12.80;99.90;;;;;;5083035;28;20526;-84
2021/11/01 03:44:06;;;;;;;2.80;2.00;;;12.80;99.90;;;;;;5082275;28;20887;-81
2021/11/01 03:46:39;;;;;;;6.93;2.30;;;12.80;99.90;;;;;;5081463;28;20448;-82
2021/11/01 03:49:09;;;;;;;11.03;2.30;;;12.80;99.90;;;;;;5080406;28;20790;-81
2021/11/01 03:51:41;;;;;;;7.63;2.27;;;12.80;99.90;;;;;;5073525;28;20498;-82
2021/11/01 03:54:08;;;;;;;6.50;2.33;;;12.80;99.90;;;;;;5081748;28;21110;-81
2021/11/01 03:56:36;;;;;;;4.53;2.20;;;12.80;99.90;;;;;;5075423;28;20461;-81
2021/11/01 03:59:04;;;;;;;13.53;2.40;;;12.70;99.90;;;;;;5076017;28;20573;-82
2021/11/01 04:01:36;;;;;;;5.70;2.50;;;12.70;99.90;;;;;;5080774;28;20829;-81
2021/11/01 04:04:02;;;;;;;6.43;2.90;;;12.70;99.90;;;;;;5080298;28;20561;-82
2021/11/01 04:06:31;;;;;;;6.00;2.23;;;12.70;99.90;;;;;;5074920;28;20457;-81
2021/11/01 04:08:58;;;;;;;6.10;2.93;;;12.70;99.90;;;;;;5078815;28;20490;-81
2021/11/01 04:11:26;;;;;;;6.90;2.50;;;12.70;99.90;;;;;;5080951;28;20474;-83
2021/11/01 04:13:59;;;;;;;5.80;2.20;;;12.70;99.90;;;;;;5071667;28;20794;-81
2021/11/01 04:16:31;;;;;;;2.10;1.90;;;12.70;99.90;;;;;;5084964;28;20457;-81
2021/11/01 04:19:01;;;;;;;8.83;2.20;;;12.60;99.90;;;;;;5082207;28;20990;-83
2021/11/01 04:21:28;;;;;;;6.37;2.77;;;12.70;99.90;;;;;;5088314;28;20495;-81
2021/11/01 04:23:59;;;;;;;10.43;4.40;;;12.70;99.90;;;;;;5075601;28;20897;-83
2021/11/01 04:26:26;;;;;;;4.20;2.00;;;12.70;99.90;;;;;;5081539;28;20589;-81
2021/11/01 04:28:53;;;;;;;9.33;2.90;;;12.70;99.90;;;;;;5082263;28;20815;-82
2021/11/01 04:31:26;;;;;;;5.40;3.00;;;12.70;99.90;;;;;;5088371;28;20468;-82
2021/11/01 04:33:55;;;;;;;5.50;3.03;;;12.70;99.90;;;;;;5087598;28;21055;-83
2021/11/01 04:36:23;;;;;;;8.20;3.00;;;12.70;99.90;;;;;;5078730;28;20458;-82
2021/11/01 04:38:59;;;;;;;7.23;2.77;;;12.70;99.90;;;;;;5072261;28;20491;-81
2021/11/01 04:41:33;;;;;;;4.47;2.90;;;12.70;99.90;;;;;;5082138;28;20817;-81
2021/11/01 04:44:16;;;;;;;6.80;3.67;;;12.70;99.90;;;;;;5084452;28;20464;-82
2021/11/01 04:54:57;;;;;;;4.93;2.83;;;12.60;99.90;;;;;;5083516;28;20473;-81
2021/11/01 04:57:27;;;;;;;6.73;2.93;;;12.60;99.90;;;;;;5087749;28;20539;-81
2021/11/01 04:59:54;;;;;;;4.40;2.90;;;12.60;99.90;;;;;;5082651;28;21079;-82
2021/11/01 05:02:23;;;;;;;7.17;3.10;;;12.60;99.90;;;;;;5081378;28;20948;-83
2021/11/01 05:04:50;;;;;;;4.77;2.90;;;12.60;99.90;;;;;;5082150;28;20506;-83
2021/11/01 05:07:18;;;;;;;6.13;2.60;;;12.50;99.90;;;;;;5092460;28;21108;-81
2021/11/01 05:09:48;;;;;;;5.70;2.30;;;12.50;99.90;;;;;;5080463;28;20224;-82
2021/11/01 05:12:28;;;;;;;7.03;3.30;;;12.50;99.90;;;;;;5081666;28;20458;-82
2021/11/01 05:15:07;;;;;;;5.97;3.00;;;12.50;99.90;;;;;;5075879;28;20627;-81
2021/11/01 05:17:48;;;;;;;6.33;2.47;;;12.50;99.90;;;;;;5084213;28;20882;-81
2021/11/01 05:20:20;;;;;;;9.33;2.70;;;12.50;99.90;;;;;;5085409;28;20489;-81
2021/11/01 05:22:52;;;;;;;7.47;3.27;;;12.50;99.90;;;;;;5089462;28;20454;-82
2021/11/01 05:25:22;;;;;;;9.10;2.93;;;12.50;99.90;;;;;;5078943;28;20467;-83
2021/11/01 05:27:59;;;;;;;6.60;2.50;;;12.40;99.90;;;;;;5079627;28;20509;-81
2021/11/01 05:30:33;;;;;;;7.90;2.60;;;12.40;99.90;;;;;;5078549;28;20454;-83
2021/11/01 05:33:05;;;;;;;9.00;3.03;;;12.40;99.90;;;;;;5084112;28;20572;-82
2021/11/01 05:35:33;;;;;;;5.53;3.00;;;12.50;99.90;;;;;;5078076;28;20546;-81
2021/11/01 05:38:00;;;;;;;6.13;3.20;;;12.40;99.90;;;;;;5079733;28;20455;-82
2021/11/01 05:40:27;;;;;;;3.70;2.40;;;12.50;99.90;;;;;;5083729;28;20484;-82
2021/11/01 05:42:54;;;;;;;10.33;2.10;;;12.50;99.90;;;;;;5076032;28;20504;-81
2021/11/01 05:45:22;;;;;;;7.67;3.27;;;12.50;99.90;;;;;;5082121;28;20485;-84
2021/11/01 05:47:57;;;;;;;9.67;2.63;;;12.50;99.90;;;;;;5084350;28;20443;-82
2021/11/01 05:50:25;;;;;;;5.53;2.63;;;12.40;99.90;;;;;;5085479;28;21173;-82
2021/11/01 05:52:52;;;;;;;6.23;3.00;;;12.40;99.90;;;;;;5084295;28;20816;-82
2021/11/01 05:55:30;;;;;;;3.83;2.47;;;12.40;99.90;;;;;;5085179;28;20869;-81
2021/11/01 05:58:15;;;;;;;11.83;4.53;;;12.40;99.90;;;;;;5082824;28;20839;-82
2021/11/01 06:03:26;;;;;;;5.93;3.77;;;12.40;99.90;;;;;;5082420;28;20454;-83
2021/11/01 06:08:44;;;;;;;5.27;2.37;;;12.40;99.90;;;;;;5084801;28;20471;-81
2021/11/01 06:13:57;;;;;;;8.47;2.67;;;12.40;99.90;;;;;;5082663;28;20462;-82
2021/11/01 06:16:25;;;;;;;5.70;2.47;;;12.30;99.90;;;;;;5076505;28;20458;-83
2021/11/01 06:18:54;;;;;;;3.57;2.13;;;12.30;99.90;;;;;;5082563;28;20874;-81
2021/11/01 06:21:21;;;;;;;6.93;2.87;;;12.30;99.90;;;;;;5075999;28;20976;-81
2021/11/01 06:23:53;;;;;;;5.03;2.40;;;12.30;99.90;;;;;;5084537;28;20534;-82
2021/11/01 06:26:23;;;;;;;4.30;2.07;;;12.30;99.90;;;;;;5084953;28;20450;-84
2021/11/01 06:28:56;;;;;;;7.50;2.50;;;12.30;99.90;;;;;;5079218;28;20465;-82
2021/11/01 06:31:27;;;;;;;8.77;3.53;;;12.30;99.90;;;;;;5078521;28;20455;-83
2021/11/01 06:34:20;;;;;;;3.43;2.00;;;12.20;99.90;;;;;;5085668;28;20585;-82
2021/11/01 06:42:30;;;;;;;3.63;2.13;;;12.20;99.90;;;;;;5041996;28;20447;-81
2021/11/01 06:45:17;;;;;;;4.13;2.23;;;12.20;99.90;;;;;;5073604;28;20499;-82
2021/11/01 06:50:47;;;;;;;7.88;2.67;;;12.20;99.90;;;;;;5089793;28;20469;-82
2021/11/01 06:58:51;;;;;;;8.53;3.17;;;12.20;99.90;;;;;;5082912;28;20237;-83
2021/11/01 07:15:10;;;;;;;6.17;2.33;;;12.20;99.90;;;;;;5083272;28;20458;-81
2021/11/01 07:17:42;;;;;;;6.37;2.60;;;12.20;99.90;;;;;;5084507;28;20508;-82
2021/11/01 07:20:21;;;;;;;5.47;2.50;;;12.20;99.90;;;;;;5079202;28;20487;-81
2021/11/01 07:29:50;;;;;;;3.20;2.50;;;12.20;99.90;;;;;;5023445;28;20612;-82
2021/11/01 08:21:29;;;;;;;6.47;2.63;;;12.40;99.90;;;;;;5077681;28;20530;-81
2021/11/01 08:24:28;;;;;;;3.13;2.10;;;12.40;99.90;;;;;;5080037;28;21044;-81
2021/11/01 08:35:46;;;;;;;6.73;2.17;;;12.50;99.90;;;;;;5078980;28;20462;-82
2021/11/01 09:01:16;;;;;;;3.43;2.10;;;12.70;99.90;;;;;;5068000;28;20486;-83
2021/11/01 09:03:30;;;;;;;6.13;2.37;;;12.70;99.90;;;;;;5080992;28;20513;-84
2021/11/01 09:20:04;;;;;;;5.03;2.03;;;12.80;99.90;;;;;;5071652;28;20456;-82
2021/11/01 09:27:59;;;;;;;4.33;1.80;;;12.90;99.90;;;;;;5079891;28;20458;-81
2021/11/01 09:35:48;;;;;;;5.43;2.00;;;12.90;99.90;;;;;;5077971;28;20461;-81
2021/11/01 09:36:36;;;;;;;6.23;1.83;;;13.00;99.90;;;;;;5002761;28;20499;-82
2021/11/01 09:41:41;;;;;;;7.10;2.40;;;13.00;99.90;;;;;;5044115;28;20476;-82
2021/11/01 09:44:12;;;;;;;4.80;2.50;;;13.10;99.90;;;;;;5079854;28;20472;-81
2021/11/01 09:46:39;;;;;;;8.47;2.40;;;13.10;99.90;;;;;;5082749;28;20475;-81
2021/11/01 09:49:16;;;;;;;3.43;2.40;;;13.10;99.90;;;;;;5077758;28;20470;-82
2021/11/01 09:51:49;;;;;;;3.93;2.20;;;13.20;99.90;;;;;;5072932;28;20538;-81
2021/11/01 09:54:21;;;;;;;5.90;2.13;;;13.20;99.90;;;;;;5077406;28;20636;-81
2021/11/01 09:56:58;;;;;;;4.47;2.00;;;13.20;99.90;;;;;;5073240;28;20451;-83
2021/11/01 09:59:27;;;;;;;3.67;2.50;;;13.20;99.90;;;;;;5068681;28;21236;-81
2021/11/01 10:01:55;;;;;;;6.43;2.40;;;13.30;99.90;;;;;;5072576;28;20497;-82
2021/11/01 10:04:25;;;;;;;5.90;2.43;;;13.30;99.90;;;;;;5079885;28;20467;-81
2021/11/01 10:07:10;;;;;;;3.67;2.00;;;13.30;99.90;;;;;;5071721;28;20478;-82
2021/11/01 10:09:49;;;;;;;6.00;2.83;;;13.30;99.90;;;;;;5077438;28;20916;-81
2021/11/01 10:12:22;;;;;;;4.07;2.23;;;13.40;99.90;;;;;;5073378;28;20882;-83
2021/11/01 10:14:51;;;;;;;8.23;2.30;;;13.40;99.90;;;;;;5069860;28;20462;-83
2021/11/01 10:17:34;;;;;;;4.90;2.20;;;13.40;99.90;;;;;;5077327;28;20461;-84
2021/11/01 10:20:07;;;;;;;7.47;2.10;;;13.40;99.90;;;;;;5076476;28;20457;-82
2021/11/01 10:22:37;;;;;;;8.23;1.80;;;13.40;99.90;;;;;;5077584;28;21023;-81
2021/11/01 10:25:06;;;;;;;2.70;1.83;;;13.40;99.90;;;;;;5073774;28;20489;-84
2021/11/01 10:27:36;;;;;;;4.53;1.90;;;13.50;99.90;;;;;;5071476;28;20456;-81
2021/11/01 10:30:08;;;;;;;5.47;2.53;;;13.50;99.90;;;;;;5077372;28;20459;-81
2021/11/01 10:32:38;;;;;;;4.30;1.83;;;13.50;99.90;;;;;;5076482;28;20849;-86
2021/11/01 10:35:18;;;;;;;5.10;2.07;;;13.50;99.90;;;;;;5070107;28;20468;-83
2021/11/01 10:38:11;;;;;;;3.90;1.70;;;13.50;99.90;;;;;;5076114;28;20462;-82
2021/11/01 10:40:44;;;;;;;6.47;2.20;;;13.50;99.90;;;;;;5072119;28;20506;-82
2021/11/01 10:46:48;;;;;;;2.87;1.90;;;13.60;99.90;;;;;;5070678;28;20492;-82
2021/11/01 11:11:43;;;;;;;4.23;2.07;;;13.60;99.90;;;;;;5075084;28;20461;-82
2021/11/01 11:14:25;;;;;;;6.97;3.27;;;13.70;99.90;;;;;;5073426;28;20486;-83
2021/11/01 11:19:53;;;;;;;8.73;2.20;;;13.70;99.90;;;;;;5077022;28;20458;-81
2021/11/01 11:28:08;;;;;;;3.23;2.17;;;13.80;99.90;;;;;;5079580;28;20453;-86
2021/11/01 11:33:42;;;;;;;6.03;1.87;;;13.80;99.90;;;;;;5078116;28;21047;-83
2021/11/01 11:48:14;;;;;;;3.43;2.20;;;13.90;99.90;;;;;;5028328;28;21024;-86
2021/11/01 11:50:41;;;;;;;2.77;1.90;;;13.90;99.90;;;;;;5066880;28;20845;-82
2021/11/01 11:53:13;;;;;;;6.60;2.23;;;13.90;99.90;;;;;;5070458;28;20471;-82
2021/11/01 11:55:40;;;;;;;6.30;2.07;;;13.90;99.90;;;;;;5080075;28;20821;-85
2021/11/01 11:58:10;;;;;;;3.70;1.90;;;13.90;99.90;;;;;;5071674;28;20961;-85
2021/11/01 12:00:39;;;;;;;3.83;2.20;;;13.90;99.90;;;;;;5069198;28;20496;-83
2021/11/01 12:03:13;;;;;;;3.73;2.30;;;14.00;99.90;;;;;;5070791;28;20468;-81
2021/11/01 12:05:44;;;;;;;5.93;2.37;;;14.00;99.90;;;;;;5075721;28;20569;-85
2021/11/01 12:08:19;;;;;;;2.40;1.80;;;14.10;99.90;;;;;;5071298;28;20870;-83
2021/11/01 12:19:19;;;;;;;4.20;2.07;;;14.30;99.90;;;;;;5075428;28;20453;-81
2021/11/01 12:21:49;;;;;;;3.13;2.13;;;14.30;99.90;;;;;;5071113;28;20490;-81
2021/11/01 12:24:22;;;;;;;6.93;2.50;;;14.30;99.90;;;;;;5081615;28;20466;-81
2021/11/01 12:26:49;;;;;;;9.00;2.00;;;14.40;99.90;;;;;;5073472;28;20460;-84
2021/11/01 12:29:17;;;;;;;4.30;1.97;;;14.40;99.90;;;;;;5075464;28;20560;-83
2021/11/01 12:32:00;;;;;;;6.07;2.40;;;14.40;99.90;;;;;;5081002;28;20452;-82
2021/11/01 12:34:28;;;;;;;5.83;2.13;;;14.30;99.90;;;;;;5079454;28;20821;-83
2021/11/01 12:37:01;;;;;;;4.47;2.47;;;14.40;99.90;;;;;;5069083;28;20869;-84
2021/11/01 12:39:34;;;;;;;4.67;2.40;;;14.40;99.90;;;;;;5078544;28;20463;-82
2021/11/01 12:42:21;;;;;;;6.43;2.47;;;14.40;99.90;;;;;;5073729;28;20491;-82
2021/11/01 12:48:10;;;;;;;5.20;2.97;;;14.40;99.90;;;;;;5071761;28;20462;-84
2021/11/01 12:59:02;;;;;;;6.67;2.83;;;14.40;99.90;;;;;;5041320;28;20456;-84
2021/11/01 13:01:32;;;;;;;5.50;3.97;;;14.40;99.90;;;;;;5081085;28;20494;-81
2021/11/01 13:04:10;;;;;;;5.10;2.00;;;14.50;99.90;;;;;;5077927;28;20542;-81
2021/11/01 13:06:47;;;;;;;3.33;2.23;;;14.50;99.90;;;;;;5074376;28;20526;-82
2021/11/01 13:09:24;;;;;;;7.10;1.97;;;14.50;99.90;;;;;;5073289;28;20459;-82
2021/11/01 13:12:06;;;;;;;10.13;3.00;;;14.50;99.90;;;;;;5075285;28;20463;-82
2021/11/01 13:14:51;;;;;;;1.90;1.80;;;14.50;99.90;;;;;;5075626;28;20469;-82
2021/11/01 13:20:06;;;;;;;15.73;4.97;;;14.60;99.90;;;;;;5078380;28;20501;-84
2021/11/01 13:23:12;;;;;;;5.23;2.53;;;14.50;99.90;;;;;;5073621;28;20487;-81
2021/11/01 13:25:48;;;;;;;2.27;2.07;;;14.60;99.90;;;;;;4983604;28;21050;-82
2021/11/01 13:37:04;;;;;;;3.57;2.27;;;14.60;99.90;;;;;;5077014;28;20530;-82
2021/11/01 13:39:32;;;;;;;3.17;2.37;;;14.60;99.90;;;;;;5071694;28;20450;-81
2021/11/01 13:41:59;;;;;;;12.03;2.70;;;14.60;99.90;;;;;;5071403;28;20513;-81
2021/11/01 13:44:28;;;;;;;3.50;2.10;;;14.60;99.90;;;;;;5075708;28;21046;-81
2021/11/01 13:46:59;;;;;;;3.20;2.33;;;14.60;99.90;;;;;;5078317;28;21291;-83
2021/11/01 13:49:30;;;;;;;3.73;2.30;;;14.60;99.90;;;;;;5076283;28;20938;-82
2021/11/01 13:52:10;;;;;;;4.33;1.97;;;14.60;99.90;;;;;;5082007;28;20561;-81
2021/11/01 13:54:42;;;;;;;3.43;2.13;;;14.60;99.90;;;;;;5074201;28;20490;-84
2021/11/01 13:57:16;;;;;;;3.63;2.10;;;14.60;99.90;;;;;;5075790;28;20869;-83
2021/11/01 13:59:50;;;;;;;3.23;1.93;;;14.70;99.90;;;;;;5075985;28;21220;-83
2021/11/01 14:11:10;;;;;;;4.67;2.33;;;14.60;99.90;;;;;;5070893;28;20455;-81
2021/11/01 14:13:51;;;;;;;4.30;2.70;;;14.60;99.90;;;;;;5070638;28;20458;-82
2021/11/01 14:16:22;;;;;;;3.83;2.30;;;14.60;99.90;;;;;;5076934;28;20469;-82
2021/11/01 14:27:31;;;;;;;2.90;2.60;;;14.60;99.90;;;;;;5072560;28;20531;-81
2021/11/01 15:16:49;;;;;;;6.60;4.20;;;14.50;99.90;;;;;;5056290;28;20457;-85
2021/11/01 15:19:41;;;;;;;10.33;4.97;;;14.50;99.90;;;;;;5070003;28;20458;-84
2021/11/01 15:27:44;;;;;;;2.97;2.43;;;14.40;99.90;;;;;;5055970;28;20452;-82
2021/11/01 15:36:16;;;;;;;2.97;2.67;;;14.40;99.90;;;;;;5073152;28;20494;-82
2021/11/01 15:38:58;;;;;;;3.20;2.10;;;14.30;99.90;;;;;;5069840;28;20932;-84
2021/11/01 16:17:23;;;;;;;10.30;4.33;;;14.10;99.90;;;;;;5078682;28;20583;-81
2021/11/01 16:19:54;;;;;;;3.93;3.30;;;14.00;99.90;;;;;;5075278;28;20543;-84
2021/11/01 16:22:23;;;;;;;4.40;3.03;;;14.00;99.90;;;;;;5073402;28;20819;-82
2021/11/01 16:24:50;;;;;;;4.07;3.67;;;14.00;99.90;;;;;;5073713;28;20465;-84
2021/11/01 16:27:20;;;;;;;4.43;3.73;;;14.00;99.90;;;;;;5073067;28;20461;-82
2021/11/01 16:29:52;;;;;;;6.70;3.60;;;14.00;99.90;;;;;;5073010;28;20460;-81
2021/11/01 16:32:23;;;;;;;6.13;3.67;;;13.90;99.90;;;;;;5075351;28;20481;-84
2021/11/01 16:34:55;;;;;;;8.00;4.47;;;13.90;99.90;;;;;;5071085;28;20476;-82
2021/11/01 16:37:37;;;;;;;4.00;3.60;;;13.90;99.90;;;;;;5070614;28;20962;-84
2021/11/01 16:40:07;;;;;;;3.60;2.93;;;13.90;99.90;;;;;;5072191;28;20518;-82
2021/11/01 16:42:36;;;;;;;4.80;2.97;;;13.90;99.90;;;;;;5075723;28;20494;-82
2021/11/01 16:45:09;;;;;;;5.13;3.37;;;13.80;99.90;;;;;;5073629;28;20837;-85
2021/11/01 16:47:36;;;;;;;4.17;3.60;;;13.80;99.90;;;;;;5074109;28;20472;-86
2021/11/01 16:50:06;;;;;;;6.83;3.60;;;13.80;99.90;;;;;;5073718;28;20996;-81
2021/11/01 16:52:33;;;;;;;5.90;3.70;;;13.80;99.90;;;;;;5073785;28;20472;-83
2021/11/01 16:55:04;;;;;;;6.03;3.13;;;13.70;99.90;;;;;;5078205;28;20459;-83
2021/11/01 16:57:36;;;;;;;3.77;3.47;;;13.70;99.90;;;;;;5070563;28;20951;-83
2021/11/01 17:00:16;;;;;;;6.27;3.60;;;13.70;99.90;;;;;;5075235;28;20492;-82
2021/11/01 17:05:47;;;;;;;6.93;3.20;;;13.70;99.90;;;;;;5063127;28;20994;-83
2021/11/01 17:22:30;;;;;;;3.60;2.97;;;13.50;99.90;;;;;;5036427;28;21180;-83
2021/11/01 17:25:00;;;;;;;7.33;3.60;;;13.50;99.90;;;;;;5075442;28;20468;-83
2021/11/01 17:36:05;;;;;;;6.10;2.83;;;13.40;99.90;;;;;;5073978;28;20901;-83
2021/11/01 18:51:15;;;;;;;7.63;3.43;;;12.90;99.90;;;;;;5079483;28;20460;-83
2021/11/01 18:53:44;;;;;;;5.23;3.73;;;12.90;99.90;;;;;;5077148;28;20462;-83
2021/11/01 18:56:13;;;;;;;4.73;3.70;;;12.90;99.90;;;;;;5078964;28;20541;-83
2021/11/01 18:58:43;;;;;;;8.30;4.50;;;12.90;99.90;;;;;;5078124;28;20468;-86
2021/11/01 19:01:13;;;;;;;4.40;3.23;;;12.90;99.90;;;;;;5079358;28;20496;-83
2021/11/01 19:03:43;;;;;;;7.60;4.47;;;12.90;99.90;;;;;;5083864;28;20963;-83
2021/11/01 19:06:31;;;;;;;4.20;3.40;;;12.90;99.90;;;;;;5072389;28;20456;-83
2021/11/01 19:09:14;;;;;;;8.27;4.03;;;12.90;99.90;;;;;;5078706;28;20468;-83
2021/11/01 20:04:53;;;;;;;7.60;3.80;;;12.80;99.90;;;;;;5079042;28;20499;-85
2021/11/01 20:10:45;;;;;;;5.90;4.63;;;12.70;99.90;;;;;;5080533;28;20507;-84
2021/11/01 20:13:21;;;;;;;7.37;4.53;;;12.70;99.90;;;;;;5074000;28;20459;-86
2021/11/01 21:25:26;;;;;;;5.97;3.70;;;12.70;99.90;;;;;;5083894;28;20536;-84
2021/11/01 21:27:54;;;;;;;6.90;3.43;;;12.70;99.90;;;;;;5083216;28;20502;-86
2021/11/01 21:30:22;;;;;;;3.03;2.83;;;12.70;99.90;;;;;;5075976;28;21143;-86
2021/11/01 21:32:49;;;;;;;8.03;3.60;;;12.70;99.90;;;;;;5077342;28;20524;-84
2021/11/01 21:35:18;;;;;;;3.43;2.50;;;12.70;99.90;;;;;;5079217;28;20549;-86
2021/11/01 21:37:46;;;;;;;14.90;2.83;;;12.60;99.90;;;;;;5075169;28;20794;-86
2021/11/01 21:40:15;;;;;;;5.53;2.60;;;12.60;99.90;;;;;;5083335;28;21258;-85
2021/11/01 21:42:43;;;;;;;6.60;2.70;;;12.70;99.90;;;;;;5078230;28;20984;-86
2021/11/01 21:45:11;;;;;;;7.10;4.60;;;12.60;99.90;;;;;;5077459;28;20457;-85
2021/11/01 21:47:40;;;;;;;11.87;6.70;;;12.60;99.90;;;;;;5078830;28;20534;-84
2021/11/01 21:50:08;;;;;;;11.20;6.77;;;12.60;99.90;;;;;;5072945;28;20531;-85
2021/11/01 21:52:36;;;;;;;7.50;5.57;;;12.60;99.90;;;;;;5084878;28;20467;-83
2021/11/01 21:55:05;;;;;;;8.97;5.50;;;12.60;99.90;;;;;;5083647;28;20510;-83
2021/11/01 21:57:36;;;;;;;5.30;4.03;;;12.60;99.90;;;;;;5077443;28;20461;-84
2021/11/01 22:16:54;;;;;;;11.20;3.17;;;12.50;99.90;;;;;;5076642;28;20620;-82
2021/11/01 22:25:02;;;;;;;4.00;2.50;;;12.50;99.90;;;;;;5061983;28;20450;-82
2021/11/01 22:33:13;;;;;;;4.13;2.50;;;12.40;99.90;;;;;;5077756;28;20515;-81
2021/11/01 22:38:42;;;;;;;4.60;3.27;;;12.30;99.90;;;;;;5075856;28;20522;-83
2021/11/01 22:41:19;;;;;;;4.20;2.60;;;12.30;99.90;;;;;;5075223;28;20457;-84
2021/11/01 22:46:44;;;;;;;3.63;3.30;;;12.30;99.90;;;;;;5070763;28;20538;-81
2021/11/01 22:57:26;;;;;;;9.90;2.90;;;12.20;99.90;;;;;;5074174;28;20501;-82
2021/11/01 22:59:55;;;;;;;6.03;3.77;;;12.20;99.90;;;;;;5069644;28;20517;-82
2021/11/01 23:02:23;;;;;;;5.73;2.97;;;12.20;99.90;;;;;;5072840;28;20804;-84
2021/11/01 23:04:52;;;;;;;4.80;2.97;;;12.20;99.90;;;;;;5075696;28;20540;-81
2021/11/01 23:32:09;;;;;;;4.23;2.90;;;12.00;99.90;;;;;;5078948;28;20531;-83
2021/11/01 23:34:36;;;;;;;8.57;2.97;;;11.90;99.90;;;;;;5077976;28;20489;-81
2021/11/01 23:37:03;;;;;;;7.37;3.47;;;11.90;99.90;;;;;;5082950;28;20536;-84
2021/11/01 23:39:32;;;;;;;4.50;2.47;;;11.90;99.90;;;;;;5078682;28;20532;-82
2021/11/01 23:41:59;;;;;;;4.73;2.90;;;11.90;99.90;;;;;;5073685;28;20819;-82
2021/11/01 23:44:26;;;;;;;3.63;2.80;;;11.90;99.90;;;;;;5074526;28;20896;-81
2021/11/01 23:46:53;;;;;;;6.47;2.60;;;11.80;99.90;;;;;;5077769;28;20553;-82
2021/11/01 23:49:19;;;;;;;6.53;2.83;;;11.80;99.90;;;;;;5077718;28;20465;-82